Time;durP1;ratioP1;P1;durP2;ratioP2;P2;SDS_P1;SDS_P2;PMS_P1;PMS_P2;Temp;Humidity;BMP_temperature;BMP_pressure;BME280_temperature;BME280_humidity;BME280_pressure;Samples;Min_cycle;Max_cycle;Signal;HPM_P1;HPM_P2
2022/02/17 00:02:07;;;;;;;44.87;28.50;;;;;;;;;;4985621;28;20034;-73
2022/02/17 00:04:33;;;;;;;50.27;28.40;;;;;;;;;;4990844;28;20060;-74
2022/02/17 00:06:59;;;;;;;47.00;28.80;;;;;;;;;;4988391;28;20058;-73
2022/02/17 00:09:26;;;;;;;46.93;28.87;;;;;;;;;;4989187;28;20584;-73
2022/02/17 00:11:52;;;;;;;45.70;28.33;;;;;;;;;;4988303;28;20482;-72
2022/02/17 00:14:18;;;;;;;44.30;26.47;;;;;;;;;;4990089;28;20062;-72
2022/02/17 00:16:44;;;;;;;41.00;25.93;;;;;;;;;;4988466;28;20416;-72
2022/02/17 00:19:13;;;;;;;39.90;24.53;;;;;;;;;;4988719;28;20454;-73
2022/02/17 00:21:40;;;;;;;38.33;24.90;;;;;;;;;;4982424;28;20031;-73
2022/02/17 00:24:06;;;;;;;42.77;26.37;;;;;;;;;;4984106;28;20035;-73
2022/02/17 00:26:33;;;;;;;40.70;24.87;;;;;;;;;;4988253;28;20034;-71
2022/02/17 00:29:00;;;;;;;34.13;22.73;;;;;;;;;;5053888;28;20034;-71
2022/02/17 00:31:35;;;;;;;35.97;23.60;;;;;;;;;;4987729;28;20479;-73
2022/02/17 00:34:01;;;;;;;36.77;24.17;;;;;;;;;;4989769;28;20037;-73
2022/02/17 00:36:27;;;;;;;37.43;24.03;;;;;;;;;;4973452;28;20031;-72
2022/02/17 00:38:54;;;;;;;35.10;22.93;;;;;;;;;;4988214;28;20050;-72
2022/02/17 00:41:20;;;;;;;37.63;24.70;;;;;;;;;;4989020;28;20034;-72
2022/02/17 00:43:47;;;;;;;34.80;22.83;;;;;;;;;;4984690;28;20030;-72
2022/02/17 00:46:13;;;;;;;38.70;24.43;;;;;;;;;;4988234;28;20030;-72
2022/02/17 00:48:47;;;;;;;39.37;24.83;;;;;;;;;;4981620;28;20026;-72
2022/02/17 00:51:17;;;;;;;37.55;23.05;;;;;;;;;;4986388;28;20038;-72
2022/02/17 00:53:43;;;;;;;38.40;24.20;;;;;;;;;;4974625;28;20035;-71
2022/02/17 00:56:09;;;;;;;35.97;23.97;;;;;;;;;;4983355;28;20026;-71
2022/02/17 00:58:35;;;;;;;39.07;25.13;;;;;;;;;;4985685;28;20480;-71
2022/02/17 01:01:01;;;;;;;40.40;25.10;;;;;;;;;;4974547;28;20038;-71
2022/02/17 01:03:27;;;;;;;42.03;25.27;;;;;;;;;;4986431;28;20030;-71
2022/02/17 01:05:53;;;;;;;36.83;23.83;;;;;;;;;;4992168;28;20042;-72
2022/02/17 01:08:19;;;;;;;38.83;24.10;;;;;;;;;;4988591;28;20030;-71
2022/02/17 01:10:45;;;;;;;40.00;25.40;;;;;;;;;;4992506;28;20034;-71
2022/02/17 01:13:11;;;;;;;39.50;24.83;;;;;;;;;;4991495;28;20031;-71
2022/02/17 01:15:37;;;;;;;40.63;25.07;;;;;;;;;;4992600;28;20468;-71
2022/02/17 01:18:04;;;;;;;38.30;24.13;;;;;;;;;;4990659;28;20027;-72
2022/02/17 01:20:30;;;;;;;38.77;25.33;;;;;;;;;;4993490;28;20464;-71
2022/02/17 01:22:56;;;;;;;39.53;25.63;;;;;;;;;;4991706;28;20071;-71
2022/02/17 01:25:22;;;;;;;39.17;24.37;;;;;;;;;;4992737;28;20042;-72
2022/02/17 01:27:49;;;;;;;40.60;25.07;;;;;;;;;;4991533;28;20033;-71
2022/02/17 01:30:15;;;;;;;40.50;25.87;;;;;;;;;;4986401;28;20034;-71
2022/02/17 01:32:41;;;;;;;38.37;24.73;;;;;;;;;;4988532;28;20027;-71
2022/02/17 01:35:07;;;;;;;36.40;23.73;;;;;;;;;;4991484;28;20041;-71
2022/02/17 01:37:33;;;;;;;36.97;23.93;;;;;;;;;;4990353;28;20027;-71
2022/02/17 01:39:59;;;;;;;35.67;24.17;;;;;;;;;;4992347;28;20073;-71
2022/02/17 01:42:25;;;;;;;36.67;22.67;;;;;;;;;;4991628;28;20030;-71
2022/02/17 01:44:51;;;;;;;41.30;23.53;;;;;;;;;;4992945;28;20072;-73
2022/02/17 01:47:18;;;;;;;37.77;24.73;;;;;;;;;;4990806;28;20034;-72
2022/02/17 01:49:44;;;;;;;39.17;24.77;;;;;;;;;;4992229;28;20109;-72
2022/02/17 01:52:11;;;;;;;39.60;24.27;;;;;;;;;;4991589;28;20026;-72
2022/02/17 01:54:38;;;;;;;37.30;24.23;;;;;;;;;;4990536;28;20038;-72
2022/02/17 01:57:10;;;;;;;40.30;25.73;;;;;;;;;;4992965;28;20506;-72
2022/02/17 01:59:36;;;;;;;38.77;24.47;;;;;;;;;;4991055;28;20099;-72
2022/02/17 02:02:02;;;;;;;36.87;23.97;;;;;;;;;;4991012;28;20483;-72
2022/02/17 02:04:28;;;;;;;40.97;25.13;;;;;;;;;;4979467;28;20035;-73
2022/02/17 02:06:54;;;;;;;40.17;25.07;;;;;;;;;;4991861;28;20022;-72
2022/02/17 02:09:20;;;;;;;39.83;25.10;;;;;;;;;;4991771;28;20379;-72
2022/02/17 02:11:46;;;;;;;37.10;23.97;;;;;;;;;;4988519;28;20030;-72
2022/02/17 02:14:16;;;;;;;40.23;24.57;;;;;;;;;;4990428;28;20115;-72
2022/02/17 02:16:42;;;;;;;38.30;24.73;;;;;;;;;;4988276;28;20030;-73
2022/02/17 02:19:09;;;;;;;35.80;23.87;;;;;;;;;;4986647;28;20037;-72
2022/02/17 02:21:35;;;;;;;38.63;24.60;;;;;;;;;;4990657;28;20468;-72
2022/02/17 02:24:01;;;;;;;39.63;26.00;;;;;;;;;;4990581;28;20109;-73
2022/02/17 02:26:27;;;;;;;38.97;25.00;;;;;;;;;;4978791;28;20089;-72
2022/02/17 02:28:54;;;;;;;40.67;23.83;;;;;;;;;;4984438;28;20026;-72
2022/02/17 02:31:20;;;;;;;37.30;23.97;;;;;;;;;;4989223;28;20039;-72
2022/02/17 02:33:46;;;;;;;36.40;23.20;;;;;;;;;;4981071;28;20499;-72
2022/02/17 02:36:12;;;;;;;39.10;24.80;;;;;;;;;;4984126;28;20522;-72
2022/02/17 02:38:38;;;;;;;36.87;23.23;;;;;;;;;;4986700;28;20042;-72
2022/02/17 02:41:04;;;;;;;37.30;24.33;;;;;;;;;;4990819;28;20030;-72
2022/02/17 02:43:31;;;;;;;36.77;23.57;;;;;;;;;;4990863;28;20109;-72
2022/02/17 02:45:57;;;;;;;36.60;25.37;;;;;;;;;;4990803;28;20042;-71
2022/02/17 02:48:23;;;;;;;38.30;24.97;;;;;;;;;;4990719;28;20031;-71
2022/02/17 02:50:49;;;;;;;36.07;23.27;;;;;;;;;;4991721;28;20479;-71
2022/02/17 02:53:16;;;;;;;37.87;22.87;;;;;;;;;;4990810;28;20030;-71
2022/02/17 02:55:46;;;;;;;35.70;22.70;;;;;;;;;;4991507;28;20032;-71
2022/02/17 02:58:12;;;;;;;36.50;23.47;;;;;;;;;;4986110;28;20115;-72
2022/02/17 03:00:39;;;;;;;38.20;23.83;;;;;;;;;;4987027;28;20033;-71
2022/02/17 03:03:05;;;;;;;35.87;23.43;;;;;;;;;;4979731;28;20551;-71
2022/02/17 03:05:31;;;;;;;37.80;24.10;;;;;;;;;;4984261;28;20149;-71
2022/02/17 03:07:57;;;;;;;38.43;24.73;;;;;;;;;;4989251;28;20033;-71
2022/02/17 03:10:23;;;;;;;31.50;21.87;;;;;;;;;;4991476;28;20058;-71
2022/02/17 03:12:49;;;;;;;38.13;23.40;;;;;;;;;;4980112;28;20038;-71
2022/02/17 03:15:15;;;;;;;39.10;23.77;;;;;;;;;;4991441;28;20034;-71
2022/02/17 03:17:41;;;;;;;35.10;22.87;;;;;;;;;;4990110;28;20365;-71
2022/02/17 03:20:08;;;;;;;29.77;22.63;;;;;;;;;;4989627;28;20068;-72
2022/02/17 03:22:37;;;;;;;33.20;22.80;;;;;;;;;;4990075;28;20121;-71
2022/02/17 03:25:05;;;;;;;34.67;22.23;;;;;;;;;;4978133;28;20072;-71
2022/02/17 03:27:31;;;;;;;32.50;20.87;;;;;;;;;;4986014;28;20951;-71
2022/02/17 03:29:57;;;;;;;30.77;20.73;;;;;;;;;;4985343;28;20495;-71
2022/02/17 03:32:23;;;;;;;29.97;20.83;;;;;;;;;;4989807;28;20030;-71
2022/02/17 03:34:49;;;;;;;31.13;20.83;;;;;;;;;;4990102;28;20065;-71
2022/02/17 03:37:15;;;;;;;32.83;21.53;;;;;;;;;;4991573;28;20472;-71
2022/02/17 03:39:41;;;;;;;31.50;20.07;;;;;;;;;;4988870;28;20125;-71
2022/02/17 03:42:07;;;;;;;28.93;20.30;;;;;;;;;;4988502;28;20062;-71
2022/02/17 03:44:34;;;;;;;29.33;20.20;;;;;;;;;;4990030;28;20167;-71
2022/02/17 03:47:00;;;;;;;27.80;19.57;;;;;;;;;;4990001;28;20105;-71
2022/02/17 03:49:26;;;;;;;32.23;20.60;;;;;;;;;;4976478;28;20050;-71
2022/02/17 03:51:52;;;;;;;29.67;19.47;;;;;;;;;;4984015;28;20105;-71
2022/02/17 03:54:19;;;;;;;29.47;19.70;;;;;;;;;;4989552;28;20064;-71
2022/02/17 03:56:45;;;;;;;30.00;19.33;;;;;;;;;;4989202;28;20042;-72
2022/02/17 03:59:11;;;;;;;28.23;19.70;;;;;;;;;;4982603;28;20015;-71
2022/02/17 04:01:38;;;;;;;28.33;19.17;;;;;;;;;;4990602;28;20495;-71
2022/02/17 04:04:05;;;;;;;29.20;20.00;;;;;;;;;;4987046;28;20034;-71
2022/02/17 04:06:32;;;;;;;30.17;21.13;;;;;;;;;;4979093;28;20480;-71
2022/02/17 04:08:58;;;;;;;30.60;22.57;;;;;;;;;;4979275;28;20054;-71
2022/02/17 04:11:26;;;;;;;32.30;21.53;;;;;;;;;;4989156;28;20099;-71
2022/02/17 04:13:52;;;;;;;29.83;20.13;;;;;;;;;;4980707;28;20022;-71
2022/02/17 04:16:18;;;;;;;32.70;20.53;;;;;;;;;;4981149;28;20038;-72
2022/02/17 04:18:45;;;;;;;33.43;21.70;;;;;;;;;;4989244;28;20026;-71
2022/02/17 04:21:13;;;;;;;31.83;20.63;;;;;;;;;;4989197;28;20034;-71
2022/02/17 04:23:44;;;;;;;31.63;20.97;;;;;;;;;;4983190;28;20430;-71
2022/02/17 04:26:10;;;;;;;31.40;21.30;;;;;;;;;;4985274;28;20042;-71
2022/02/17 04:28:36;;;;;;;31.33;20.80;;;;;;;;;;4989610;28;20049;-71
2022/02/17 04:31:02;;;;;;;29.63;20.20;;;;;;;;;;4990386;28;20065;-71
2022/02/17 04:33:28;;;;;;;28.37;19.83;;;;;;;;;;4988857;28;20455;-71
2022/02/17 04:35:54;;;;;;;28.30;19.63;;;;;;;;;;4993622;28;20061;-71
2022/02/17 04:38:20;;;;;;;29.80;19.93;;;;;;;;;;4991439;28;20068;-70
2022/02/17 04:43:31;;;;;;;27.45;19.40;;;;;;;;;;4992137;28;20107;-71
2022/02/17 04:45:57;;;;;;;31.23;21.93;;;;;;;;;;4993691;28;20488;-71
2022/02/17 04:48:23;;;;;;;28.80;20.07;;;;;;;;;;4991745;28;20403;-71
2022/02/17 04:50:49;;;;;;;27.27;19.57;;;;;;;;;;4991889;28;20404;-71
2022/02/17 04:53:15;;;;;;;28.20;18.83;;;;;;;;;;4990414;28;20031;-72
2022/02/17 04:55:41;;;;;;;28.27;20.17;;;;;;;;;;4980925;28;20535;-71
2022/02/17 04:58:07;;;;;;;28.53;20.50;;;;;;;;;;4991389;28;20031;-72
2022/02/17 05:00:33;;;;;;;30.40;19.93;;;;;;;;;;4988120;28;20026;-72
2022/02/17 05:02:59;;;;;;;31.00;21.13;;;;;;;;;;4992137;28;20038;-71
2022/02/17 05:05:25;;;;;;;31.17;20.33;;;;;;;;;;4991819;28;20043;-72
2022/02/17 05:07:51;;;;;;;31.30;20.67;;;;;;;;;;4993843;28;20023;-71
2022/02/17 05:10:17;;;;;;;28.50;19.73;;;;;;;;;;4984858;28;20039;-71
2022/02/17 05:12:43;;;;;;;30.07;19.83;;;;;;;;;;4991534;28;20022;-72
2022/02/17 05:15:28;;;;;;;27.93;20.33;;;;;;;;;;4977332;28;20042;-71
2022/02/17 05:18:13;;;;;;;28.58;19.90;;;;;;;;;;4989541;28;20030;-72
2022/02/17 05:20:41;;;;;;;24.40;18.13;;;;;;;;;;4989925;28;20027;-71
2022/02/17 05:23:08;;;;;;;27.50;20.10;;;;;;;;;;4992087;28;20034;-71
2022/02/17 05:25:34;;;;;;;27.37;19.60;;;;;;;;;;4991799;28;20125;-71
2022/02/17 05:28:01;;;;;;;31.43;20.73;;;;;;;;;;4992838;28;20115;-71
2022/02/17 05:30:27;;;;;;;28.87;20.30;;;;;;;;;;4989834;28;20121;-71
2022/02/17 05:32:53;;;;;;;24.47;18.77;;;;;;;;;;4992830;28;20031;-71
2022/02/17 05:35:19;;;;;;;26.47;19.30;;;;;;;;;;4984184;28;20034;-70
2022/02/17 05:37:45;;;;;;;27.00;20.20;;;;;;;;;;4992913;28;20039;-71
2022/02/17 05:40:13;;;;;;;30.60;20.73;;;;;;;;;;4980225;28;20085;-71
2022/02/17 05:42:39;;;;;;;27.03;19.30;;;;;;;;;;4982886;28;20031;-71
2022/02/17 05:45:06;;;;;;;26.07;19.43;;;;;;;;;;4991218;28;20042;-71
2022/02/17 05:47:32;;;;;;;28.57;19.10;;;;;;;;;;4989014;28;20079;-71
2022/02/17 05:49:58;;;;;;;25.23;17.77;;;;;;;;;;4987264;28;20026;-70
2022/02/17 05:52:24;;;;;;;24.53;18.83;;;;;;;;;;4990447;28;20099;-70
2022/02/17 05:54:51;;;;;;;27.13;19.40;;;;;;;;;;4986732;28;20431;-70
2022/02/17 05:57:17;;;;;;;26.50;18.67;;;;;;;;;;4992889;28;20063;-72
2022/02/17 05:59:44;;;;;;;25.00;18.90;;;;;;;;;;4991898;28;21702;-71
2022/02/17 06:02:10;;;;;;;25.50;19.23;;;;;;;;;;4984013;28;20053;-71
2022/02/17 06:04:36;;;;;;;29.40;19.73;;;;;;;;;;4977749;28;20066;-71
2022/02/17 06:07:02;;;;;;;26.07;18.63;;;;;;;;;;4992776;28;20383;-71
2022/02/17 06:09:28;;;;;;;28.40;19.43;;;;;;;;;;4991641;28;20433;-71
2022/02/17 06:14:59;;;;;;;26.40;19.50;;;;;;;;;;4991074;28;20042;-71
2022/02/17 06:17:25;;;;;;;26.23;18.57;;;;;;;;;;4989737;28;20057;-71
2022/02/17 06:19:51;;;;;;;24.90;18.07;;;;;;;;;;4990976;28;20433;-71
2022/02/17 06:22:17;;;;;;;27.07;18.57;;;;;;;;;;4992337;28;20045;-72
2022/02/17 06:24:43;;;;;;;26.30;18.77;;;;;;;;;;4990485;28;20066;-72
2022/02/17 06:27:09;;;;;;;25.53;18.80;;;;;;;;;;4992714;28;20101;-71
2022/02/17 06:29:35;;;;;;;26.57;19.37;;;;;;;;;;4990318;28;20034;-71
2022/02/17 06:32:01;;;;;;;25.40;19.73;;;;;;;;;;4992522;28;20034;-71
2022/02/17 06:34:27;;;;;;;28.33;19.77;;;;;;;;;;4990058;28;20030;-71
2022/02/17 06:36:53;;;;;;;26.03;18.83;;;;;;;;;;4991304;28;20077;-71
2022/02/17 06:39:19;;;;;;;28.63;19.10;;;;;;;;;;4990726;28;20047;-71
2022/02/17 06:41:45;;;;;;;26.47;19.83;;;;;;;;;;4993415;28;20038;-71
2022/02/17 06:44:11;;;;;;;25.33;19.90;;;;;;;;;;4991194;28;20045;-71
2022/02/17 06:46:37;;;;;;;29.67;20.40;;;;;;;;;;4991603;28;20034;-72
2022/02/17 06:49:03;;;;;;;28.10;18.80;;;;;;;;;;4987520;28;20395;-71
2022/02/17 06:51:29;;;;;;;26.73;19.67;;;;;;;;;;4983397;28;20023;-72
2022/02/17 06:53:55;;;;;;;26.73;19.50;;;;;;;;;;4989196;28;20091;-71
2022/02/17 06:56:22;;;;;;;26.33;18.43;;;;;;;;;;4991338;28;20030;-71
2022/02/17 06:58:48;;;;;;;24.90;17.67;;;;;;;;;;4989492;28;20061;-71
2022/02/17 07:01:14;;;;;;;27.57;19.07;;;;;;;;;;4989962;28;20428;-73
2022/02/17 07:03:40;;;;;;;25.70;18.30;;;;;;;;;;4981019;28;20116;-72
2022/02/17 07:06:06;;;;;;;24.80;17.53;;;;;;;;;;4987868;28;20066;-72
2022/02/17 07:08:32;;;;;;;29.20;18.53;;;;;;;;;;4990498;28;20047;-73
2022/02/17 07:11:00;;;;;;;26.20;19.03;;;;;;;;;;4990466;28;20033;-72
2022/02/17 07:13:27;;;;;;;25.27;17.70;;;;;;;;;;4989909;28;20119;-72
2022/02/17 07:15:55;;;;;;;23.63;16.90;;;;;;;;;;4981880;28;20034;-71
2022/02/17 07:18:22;;;;;;;23.57;17.13;;;;;;;;;;4990894;28;20033;-71
2022/02/17 07:20:49;;;;;;;24.23;17.13;;;;;;;;;;4989609;28;20102;-71
2022/02/17 07:23:16;;;;;;;24.53;17.37;;;;;;;;;;4991481;28;20026;-71
2022/02/17 07:25:42;;;;;;;26.07;18.17;;;;;;;;;;4990071;28;20030;-71
2022/02/17 07:28:09;;;;;;;26.93;16.53;;;;;;;;;;4991544;28;20029;-71
2022/02/17 07:30:36;;;;;;;25.93;17.30;;;;;;;;;;4986077;28;20468;-72
2022/02/17 07:33:02;;;;;;;22.53;16.80;;;;;;;;;;4987881;28;20027;-72
2022/02/17 07:35:28;;;;;;;21.90;16.83;;;;;;;;;;4988421;28;20069;-72
2022/02/17 07:37:55;;;;;;;22.57;16.33;;;;;;;;;;4989316;28;20022;-72
2022/02/17 07:40:21;;;;;;;25.53;17.47;;;;;;;;;;4988912;28;20377;-72
2022/02/17 07:42:47;;;;;;;24.20;16.90;;;;;;;;;;4987286;28;20483;-72
2022/02/17 07:45:14;;;;;;;21.33;16.57;;;;;;;;;;4989845;28;20039;-71
2022/02/17 07:47:45;;;;;;;23.17;16.30;;;;;;;;;;4990230;28;20030;-72
2022/02/17 07:50:11;;;;;;;24.60;16.43;;;;;;;;;;4990387;28;20487;-72
2022/02/17 07:52:37;;;;;;;26.43;18.17;;;;;;;;;;4991479;28;20073;-72
2022/02/17 07:55:04;;;;;;;21.23;15.90;;;;;;;;;;4990440;28;20031;-72
2022/02/17 07:57:30;;;;;;;23.47;16.20;;;;;;;;;;4990966;28;20087;-71
2022/02/17 07:59:56;;;;;;;28.87;18.50;;;;;;;;;;4990160;28;20109;-72
2022/02/17 08:02:22;;;;;;;25.57;17.37;;;;;;;;;;4991054;28;20030;-73
2022/02/17 08:04:48;;;;;;;25.77;17.23;;;;;;;;;;4990374;28;20038;-72
2022/02/17 08:07:15;;;;;;;30.70;19.63;;;;;;;;;;4991030;28;20490;-72
2022/02/17 08:09:41;;;;;;;27.43;18.77;;;;;;;;;;4984053;28;20042;-72
2022/02/17 08:12:08;;;;;;;33.33;18.67;;;;;;;;;;4976814;28;20403;-71
2022/02/17 08:14:34;;;;;;;28.53;19.17;;;;;;;;;;4990137;28;20132;-72
2022/02/17 08:17:00;;;;;;;28.17;19.93;;;;;;;;;;4989759;28;20361;-71
2022/02/17 08:19:26;;;;;;;29.03;20.57;;;;;;;;;;4988523;28;20121;-71
2022/02/17 08:21:52;;;;;;;33.60;20.13;;;;;;;;;;4991177;28;20482;-72
2022/02/17 08:24:18;;;;;;;35.33;21.73;;;;;;;;;;4988270;28;20042;-73
2022/02/17 08:26:44;;;;;;;26.93;20.57;;;;;;;;;;4972818;28;20038;-72
2022/02/17 08:29:11;;;;;;;27.87;20.70;;;;;;;;;;4980400;28;20038;-72
2022/02/17 08:31:37;;;;;;;30.47;18.77;;;;;;;;;;4989443;28;20220;-73
2022/02/17 08:34:04;;;;;;;31.40;22.17;;;;;;;;;;4991016;28;20456;-73
2022/02/17 08:36:30;;;;;;;31.53;21.40;;;;;;;;;;4989417;28;20041;-72
2022/02/17 08:38:56;;;;;;;31.03;21.13;;;;;;;;;;4988213;28;20047;-72
2022/02/17 08:41:23;;;;;;;29.23;20.57;;;;;;;;;;4988762;28;20419;-71
2022/02/17 08:43:49;;;;;;;31.03;20.23;;;;;;;;;;4980211;28;20492;-72
2022/02/17 08:46:16;;;;;;;29.23;21.03;;;;;;;;;;4977126;28;20058;-73
2022/02/17 08:48:42;;;;;;;32.83;20.37;;;;;;;;;;4982700;28;20026;-72
2022/02/17 08:51:08;;;;;;;29.90;20.73;;;;;;;;;;4971005;28;20031;-72
2022/02/17 08:53:34;;;;;;;30.47;21.80;;;;;;;;;;4971404;28;20050;-72
2022/02/17 08:56:00;;;;;;;27.93;20.20;;;;;;;;;;4971240;28;20101;-73
2022/02/17 08:58:26;;;;;;;27.33;19.60;;;;;;;;;;4969851;28;20026;-72
2022/02/17 09:00:52;;;;;;;30.33;20.83;;;;;;;;;;4981986;28;20023;-73
2022/02/17 09:03:18;;;;;;;25.47;19.23;;;;;;;;;;4981375;28;20049;-72
2022/02/17 09:05:45;;;;;;;31.13;19.60;;;;;;;;;;4980092;28;20042;-72
2022/02/17 09:08:12;;;;;;;30.70;20.90;;;;;;;;;;4990360;28;20014;-73
2022/02/17 09:10:38;;;;;;;29.97;19.53;;;;;;;;;;4979863;28;20039;-72
2022/02/17 09:13:04;;;;;;;30.03;18.97;;;;;;;;;;4984598;28;20373;-72
2022/02/17 09:15:30;;;;;;;26.93;17.57;;;;;;;;;;4989082;28;20034;-72
2022/02/17 09:17:56;;;;;;;28.30;18.90;;;;;;;;;;4990210;28;20085;-72
2022/02/17 09:20:23;;;;;;;27.37;19.17;;;;;;;;;;4990224;28;20034;-72
2022/02/17 09:22:49;;;;;;;25.97;17.43;;;;;;;;;;4992198;28;20392;-73
2022/02/17 09:25:15;;;;;;;28.70;18.90;;;;;;;;;;4992423;28;20043;-72
2022/02/17 09:27:41;;;;;;;24.60;17.43;;;;;;;;;;4993743;28;20031;-72
2022/02/17 09:30:08;;;;;;;27.23;18.63;;;;;;;;;;4991215;28;20057;-72
2022/02/17 09:32:34;;;;;;;28.77;18.67;;;;;;;;;;4978732;28;20034;-73
2022/02/17 09:35:00;;;;;;;32.47;18.57;;;;;;;;;;4976469;28;20112;-73
2022/02/17 09:37:27;;;;;;;28.53;19.43;;;;;;;;;;4992012;28;20077;-74
2022/02/17 09:39:53;;;;;;;28.87;18.57;;;;;;;;;;4991911;28;20526;-73
2022/02/17 09:42:19;;;;;;;32.57;19.60;;;;;;;;;;4991844;28;20117;-73
2022/02/17 09:44:46;;;;;;;28.97;19.87;;;;;;;;;;4990659;28;20216;-74
2022/02/17 09:47:12;;;;;;;31.37;19.63;;;;;;;;;;4991981;28;20033;-74
2022/02/17 09:49:42;;;;;;;27.73;19.40;;;;;;;;;;4993380;28;20070;-73
2022/02/17 09:52:13;;;;;;;28.63;19.63;;;;;;;;;;4992799;28;20430;-73
2022/02/17 09:54:40;;;;;;;33.87;21.17;;;;;;;;;;4991874;28;20095;-73
2022/02/17 09:57:06;;;;;;;31.77;20.43;;;;;;;;;;4972424;28;20046;-73
2022/02/17 09:59:32;;;;;;;30.40;21.03;;;;;;;;;;4973587;28;20035;-74
2022/02/17 10:01:59;;;;;;;31.50;20.00;;;;;;;;;;4990390;28;20064;-72
2022/02/17 10:04:26;;;;;;;29.97;20.43;;;;;;;;;;4992618;28;20037;-73
2022/02/17 10:06:54;;;;;;;34.63;19.87;;;;;;;;;;4975422;28;20033;-74
2022/02/17 10:09:21;;;;;;;30.90;21.23;;;;;;;;;;4973362;28;20027;-73
2022/02/17 10:11:48;;;;;;;33.00;21.50;;;;;;;;;;4987594;28;20033;-73
2022/02/17 10:14:15;;;;;;;31.07;20.13;;;;;;;;;;4993046;28;20033;-73
2022/02/17 10:16:52;;;;;;;26.20;18.70;;;;;;;;;;4973335;28;20150;-73
2022/02/17 10:19:18;;;;;;;29.83;20.60;;;;;;;;;;4973188;28;20033;-73
2022/02/17 10:21:44;;;;;;;33.67;21.03;;;;;;;;;;4972381;28;20035;-73
2022/02/17 10:24:29;;;;;;;29.40;20.93;;;;;;;;;;5011063;28;20037;-74
2022/02/17 10:26:55;;;;;;;;;;;;;;;;;;4972644;28;20031;-73
2022/02/17 10:29:21;;;;;;;28.33;20.10;;;;;;;;;;4986975;28;19992;-74
2022/02/17 10:31:47;;;;;;;27.70;20.93;;;;;;;;;;4990094;28;20032;-74
2022/02/17 10:34:19;;;;;;;29.40;22.03;;;;;;;;;;4991136;28;20037;-74
2022/02/17 10:36:46;;;;;;;26.47;21.27;;;;;;;;;;4991552;28;20515;-74
2022/02/17 10:39:12;;;;;;;29.17;20.53;;;;;;;;;;4992245;28;20082;-73
2022/02/17 10:41:44;;;;;;;30.30;20.42;;;;;;;;;;4990664;28;20088;-73
2022/02/17 10:44:10;;;;;;;27.37;19.97;;;;;;;;;;4992173;28;20030;-73
2022/02/17 10:46:37;;;;;;;28.00;20.33;;;;;;;;;;4990958;28;20038;-73
2022/02/17 10:49:13;;;;;;;29.77;20.80;;;;;;;;;;4992261;28;20023;-74
2022/02/17 10:51:39;;;;;;;28.97;19.33;;;;;;;;;;4980446;28;20030;-73
2022/02/17 10:54:09;;;;;;;24.00;18.77;;;;;;;;;;4972174;28;20064;-72
2022/02/17 10:56:36;;;;;;;25.60;18.25;;;;;;;;;;4982147;28;20480;-73
2022/02/17 11:00:00;;;;;;;24.35;15.82;;;;;;;;;;4992000;28;20421;-73
2022/02/17 11:01:52;;;;;;;19.23;13.02;;;;;;;;;;4979303;28;20038;-75
2022/02/17 11:04:18;;;;;;;23.80;12.98;;;;;;;;;;4972436;28;20096;-74
2022/02/17 11:06:45;;;;;;;18.05;11.35;;;;;;;;;;4983032;28;20038;-74
2022/02/17 11:09:12;;;;;;;20.92;12.73;;;;;;;;;;4991874;28;20183;-74
2022/02/17 11:11:40;;;;;;;14.88;10.07;;;;;;;;;;4990677;28;20082;-73
2022/02/17 11:14:06;;;;;;;16.20;10.75;;;;;;;;;;4989607;28;20042;-75
2022/02/17 11:16:32;;;;;;;16.77;11.70;;;;;;;;;;4990898;28;20026;-74
2022/02/17 11:18:59;;;;;;;16.45;10.73;;;;;;;;;;4991742;28;20391;-74
2022/02/17 11:21:25;;;;;;;16.10;11.00;;;;;;;;;;4989837;28;20031;-74
2022/02/17 11:23:58;;;;;;;16.98;11.07;;;;;;;;;;4983581;28;20054;-74
2022/02/17 11:26:26;;;;;;;13.27;9.23;;;;;;;;;;4979100;28;20495;-74
2022/02/17 11:28:52;;;;;;;15.68;8.80;;;;;;;;;;4989593;28;20510;-75
2022/02/17 11:31:18;;;;;;;16.92;9.35;;;;;;;;;;4985875;28;20080;-74
2022/02/17 11:33:55;;;;;;;16.38;10.80;;;;;;;;;;4976805;28;20034;-75
2022/02/17 11:36:27;;;;;;;15.73;10.38;;;;;;;;;;4982951;28;20027;-74
2022/02/17 11:38:57;;;;;;;13.55;8.45;;;;;;;;;;4991298;28;20535;-74
2022/02/17 11:41:31;;;;;;;12.15;7.88;;;;;;;;;;4983135;28;20731;-75
2022/02/17 11:44:11;;;;;;;13.25;8.60;;;;;;;;;;4972084;28;20030;-74
2022/02/17 11:46:48;;;;;;;13.38;8.55;;;;;;;;;;4979285;28;20138;-75
2022/02/17 11:49:35;;;;;;;14.88;9.52;;;;;;;;;;4989735;28;20034;-76
2022/02/17 11:52:14;;;;;;;11.50;7.97;;;;;;;;;;4979856;28;20062;-75
2022/02/17 11:55:03;;;;;;;11.63;7.90;;;;;;;;;;4971921;28;20102;-76
2022/02/17 11:57:37;;;;;;;9.95;7.95;;;;;;;;;;4970697;28;20043;-76
2022/02/17 12:00:22;;;;;;;9.82;7.53;;;;;;;;;;4970990;28;20031;-76
2022/02/17 12:02:50;;;;;;;13.30;7.95;;;;;;;;;;4988315;28;20068;-76
2022/02/17 12:05:17;;;;;;;12.82;7.68;;;;;;;;;;4989969;28;20042;-76
2022/02/17 12:07:44;;;;;;;13.75;8.27;;;;;;;;;;4973265;28;20053;-76
2022/02/17 12:10:29;;;;;;;12.38;7.63;;;;;;;;;;4971769;28;20023;-76
2022/02/17 12:12:55;;;;;;;9.80;7.60;;;;;;;;;;4988965;28;20373;-76
2022/02/17 12:15:22;;;;;;;12.25;8.13;;;;;;;;;;4990956;28;20036;-76
2022/02/17 12:17:49;;;;;;;10.57;7.22;;;;;;;;;;4989904;28;20487;-76
2022/02/17 12:20:21;;;;;;;11.95;7.40;;;;;;;;;;4989061;28;20030;-76
2022/02/17 12:22:48;;;;;;;14.27;8.52;;;;;;;;;;4989771;28;20030;-76
2022/02/17 12:25:15;;;;;;;13.02;8.05;;;;;;;;;;4974771;28;20030;-76
2022/02/17 12:27:41;;;;;;;15.57;9.18;;;;;;;;;;4969197;28;20034;-76
2022/02/17 12:30:08;;;;;;;10.38;7.82;;;;;;;;;;4989463;28;20034;-76
2022/02/17 12:32:34;;;;;;;15.02;8.77;;;;;;;;;;4976361;28;20114;-74
2022/02/17 12:35:00;;;;;;;12.73;8.65;;;;;;;;;;4969939;28;20472;-76
2022/02/17 12:37:26;;;;;;;11.18;8.02;;;;;;;;;;4972255;28;20038;-76
2022/02/17 12:39:54;;;;;;;14.32;9.02;;;;;;;;;;4970886;28;20054;-75
2022/02/17 12:42:21;;;;;;;12.80;8.73;;;;;;;;;;4982067;28;20026;-74
2022/02/17 12:44:48;;;;;;;17.23;8.80;;;;;;;;;;4988451;28;20053;-76
2022/02/17 12:47:15;;;;;;;14.02;8.43;;;;;;;;;;4978345;28;20026;-75
2022/02/17 12:49:41;;;;;;;15.45;8.68;;;;;;;;;;4971203;28;20088;-75
2022/02/17 12:52:12;;;;;;;13.82;7.97;;;;;;;;;;4979881;28;20034;-76
2022/02/17 12:54:38;;;;;;;12.48;8.07;;;;;;;;;;4990515;28;20448;-75
2022/02/17 12:57:11;;;;;;;13.13;7.85;;;;;;;;;;4992532;28;20117;-75
2022/02/17 12:59:37;;;;;;;11.73;8.50;;;;;;;;;;4973054;28;20043;-76
2022/02/17 13:02:03;;;;;;;13.68;9.10;;;;;;;;;;4982267;28;20384;-75
2022/02/17 13:04:30;;;;;;;14.82;8.52;;;;;;;;;;4993669;28;20437;-75
2022/02/17 13:07:00;;;;;;;22.80;9.77;;;;;;;;;;4992479;28;20499;-76
2022/02/17 13:09:28;;;;;;;13.73;9.18;;;;;;;;;;4993546;28;20033;-75
2022/02/17 13:11:56;;;;;;;15.98;9.82;;;;;;;;;;4985183;28;20022;-75
2022/02/17 13:14:23;;;;;;;14.63;8.70;;;;;;;;;;4975992;28;20031;-75
2022/02/17 13:16:51;;;;;;;13.18;9.13;;;;;;;;;;4988411;28;20052;-75
2022/02/17 13:19:36;;;;;;;16.77;9.15;;;;;;;;;;4992550;28;20033;-74
2022/02/17 13:22:03;;;;;;;16.73;9.98;;;;;;;;;;4990046;28;20033;-75
2022/02/17 13:24:29;;;;;;;15.45;9.55;;;;;;;;;;4991261;28;20044;-75
2022/02/17 13:27:06;;;;;;;13.13;9.25;;;;;;;;;;4984507;28;20019;-75
2022/02/17 13:29:32;;;;;;;14.93;9.48;;;;;;;;;;4987656;28;20396;-75
2022/02/17 13:31:58;;;;;;;12.00;9.50;;;;;;;;;;4972625;28;20031;-75
2022/02/17 13:34:29;;;;;;;11.52;9.48;;;;;;;;;;4991517;28;20030;-75
2022/02/17 13:37:05;;;;;;;16.50;10.00;;;;;;;;;;4991672;28;20097;-70
2022/02/17 13:39:31;;;;;;;18.00;11.20;;;;;;;;;;4992182;28;20074;-70
2022/02/17 13:42:00;;;;;;;17.52;11.48;;;;;;;;;;4992374;28;20426;-70
2022/02/17 13:44:30;;;;;;;16.92;11.20;;;;;;;;;;4992010;28;20035;-70
2022/02/17 13:49:59;;;;;;;20.35;12.13;;;;;;;;;;4979541;28;20156;-70
2022/02/17 13:52:30;;;;;;;21.40;12.30;;;;;;;;;;4982298;28;20053;-69
2022/02/17 13:54:57;;;;;;;17.33;12.05;;;;;;;;;;4979323;28;20487;-70
2022/02/17 13:57:24;;;;;;;17.35;12.77;;;;;;;;;;4972864;28;20384;-71
2022/02/17 13:59:51;;;;;;;19.15;12.30;;;;;;;;;;4971739;28;20053;-70
2022/02/17 14:02:30;;;;;;;17.55;12.10;;;;;;;;;;4973016;28;20457;-71
2022/02/17 14:05:07;;;;;;;17.05;12.65;;;;;;;;;;4985072;28;20553;-71
2022/02/17 14:07:33;;;;;;;17.08;12.73;;;;;;;;;;4973270;28;20468;-71
2022/02/17 14:09:59;;;;;;;20.60;14.00;;;;;;;;;;4985261;28;20112;-71
2022/02/17 14:12:25;;;;;;;17.67;11.95;;;;;;;;;;4975560;28;20106;-71
2022/02/17 14:14:51;;;;;;;19.05;13.48;;;;;;;;;;4975244;28;20111;-71
2022/02/17 14:17:18;;;;;;;17.83;13.15;;;;;;;;;;4984318;28;20027;-71
2022/02/17 14:19:44;;;;;;;17.10;13.07;;;;;;;;;;4989904;28;20027;-71
2022/02/17 14:22:10;;;;;;;21.95;13.07;;;;;;;;;;4977989;28;20065;-71
2022/02/17 14:24:36;;;;;;;18.83;13.15;;;;;;;;;;4972066;28;20491;-70
2022/02/17 14:27:03;;;;;;;18.67;13.32;;;;;;;;;;4978462;28;20045;-70
2022/02/17 14:29:29;;;;;;;21.33;15.02;;;;;;;;;;4972847;28;20039;-70